createdAt,value
2022-08-25T00:00:06.368Z,331.76
2022-08-25T00:01:06.365Z,331.76
2022-08-25T00:02:06.370Z,331.76
2022-08-25T00:03:06.412Z,331.76
2022-08-25T00:04:06.366Z,331.76
2022-08-25T00:05:06.556Z,331.76
2022-08-25T00:06:06.373Z,331.76
2022-08-25T00:07:06.373Z,331.76
2022-08-25T00:08:06.606Z,331.76
2022-08-25T00:09:06.363Z,331.76
2022-08-25T00:10:06.371Z,331.76
2022-08-25T00:11:06.373Z,331.76
2022-08-25T00:12:06.375Z,331.76
2022-08-25T00:13:06.378Z,331.76
2022-08-25T00:14:06.368Z,331.76
2022-08-25T00:15:06.382Z,331.76
2022-08-25T00:16:06.439Z,331.76
2022-08-25T00:17:06.372Z,331.76
2022-08-25T00:18:11.551Z,331.76
2022-08-25T00:19:06.385Z,331.76
2022-08-25T00:20:06.383Z,331.76
2022-08-25T00:21:06.383Z,331.76
2022-08-25T00:22:06.386Z,331.76
2022-08-25T00:23:06.382Z,331.76
2022-08-25T00:24:06.383Z,331.76
2022-08-25T00:25:06.388Z,331.76
2022-08-25T00:26:06.386Z,331.76
2022-08-25T00:27:06.377Z,331.76
2022-08-25T00:28:08.433Z,331.76
2022-08-25T00:29:06.388Z,331.76
2022-08-25T00:30:06.380Z,331.76
2022-08-25T00:31:06.447Z,331.76
2022-08-25T00:32:06.383Z,331.76
2022-08-25T00:33:06.388Z,331.76
2022-08-25T00:34:06.390Z,331.76
2022-08-25T00:35:06.390Z,331.76
2022-08-25T00:36:06.390Z,331.76
2022-08-25T00:37:06.382Z,331.76
2022-08-25T00:38:06.506Z,331.76
2022-08-25T00:39:06.385Z,331.76
2022-08-25T00:40:06.458Z,331.76
2022-08-25T00:41:06.393Z,331.76
2022-08-25T00:42:06.885Z,331.76
2022-08-25T00:43:06.390Z,331.76
2022-08-25T00:44:06.400Z,331.76
2022-08-25T00:45:06.402Z,331.76
2022-08-25T00:46:06.472Z,331.76
2022-08-25T00:47:06.403Z,331.76
2022-08-25T00:48:06.547Z,331.76
2022-08-25T00:49:06.392Z,331.76
2022-08-25T00:50:06.401Z,331.76
2022-08-25T00:51:06.400Z,331.76
2022-08-25T00:52:06.400Z,331.76
2022-08-25T00:53:06.397Z,331.76
2022-08-25T00:54:06.406Z,331.76
2022-08-25T00:55:07.655Z,331.76
2022-08-25T00:56:06.410Z,331.76
2022-08-25T00:57:06.409Z,331.76
2022-08-25T00:58:06.465Z,331.76
2022-08-25T00:59:06.404Z,331.76
2022-08-25T01:00:06.405Z,331.76
2022-08-25T01:01:06.431Z,331.76
2022-08-25T01:02:06.409Z,331.76
2022-08-25T01:03:06.431Z,331.76
2022-08-25T01:04:06.406Z,331.76
2022-08-25T01:05:06.412Z,331.76
2022-08-25T01:06:06.400Z,331.76
2022-08-25T01:07:06.394Z,331.76
2022-08-25T01:08:06.608Z,331.76
2022-08-25T01:09:06.406Z,331.76
2022-08-25T01:10:06.399Z,331.76
2022-08-25T01:11:06.406Z,331.76
2022-08-25T01:12:06.401Z,331.76
2022-08-25T01:13:06.403Z,331.76
2022-08-25T01:14:06.412Z,331.76
2022-08-25T01:15:06.401Z,331.76
2022-08-25T01:16:06.444Z,331.76
2022-08-25T01:17:06.406Z,331.76
2022-08-25T01:18:06.566Z,331.76
2022-08-25T01:19:06.407Z,331.76
2022-08-25T01:20:06.404Z,331.76
2022-08-25T01:21:06.409Z,331.76
2022-08-25T01:22:06.406Z,331.76
2022-08-25T01:23:06.413Z,331.76
2022-08-25T01:24:06.403Z,331.76
2022-08-25T01:25:06.402Z,331.76
2022-08-25T01:26:06.408Z,331.76
2022-08-25T01:27:06.417Z,331.76
2022-08-25T01:28:06.594Z,331.76
2022-08-25T01:29:06.414Z,331.76
2022-08-25T01:30:06.409Z,331.76
2022-08-25T01:31:23.588Z,331.76
2022-08-25T01:32:06.412Z,331.76
2022-08-25T01:33:06.415Z,331.76
2022-08-25T01:34:06.410Z,331.76
2022-08-25T01:35:06.406Z,331.76
2022-08-25T01:36:06.416Z,331.76
2022-08-25T01:37:06.399Z,331.76
2022-08-25T01:38:06.495Z,331.76
2022-08-25T01:39:06.403Z,331.76
2022-08-25T01:40:06.445Z,331.76
2022-08-25T01:41:06.411Z,331.76
2022-08-25T01:42:06.425Z,331.76
2022-08-25T01:43:06.412Z,331.76
2022-08-25T01:44:06.411Z,331.76
2022-08-25T01:45:06.415Z,331.76
2022-08-25T01:46:06.460Z,331.76
2022-08-25T01:47:06.420Z,331.76
2022-08-25T01:48:06.510Z,331.76
2022-08-25T01:49:06.938Z,331.76
2022-08-25T01:50:06.415Z,331.76
2022-08-25T01:51:06.417Z,331.76
2022-08-25T01:52:06.418Z,331.76
2022-08-25T01:53:06.417Z,331.76
2022-08-25T01:54:06.412Z,331.76
2022-08-25T01:55:06.416Z,331.76
2022-08-25T01:56:06.411Z,331.76
2022-08-25T01:57:06.410Z,331.76
2022-08-25T01:58:06.499Z,331.76
2022-08-25T01:59:06.411Z,331.76
2022-08-25T02:00:06.407Z,331.76
2022-08-25T02:01:06.463Z,331.76
2022-08-25T02:02:06.474Z,331.76
2022-08-25T02:03:06.472Z,331.76
2022-08-25T02:04:06.416Z,331.76
2022-08-25T02:05:06.431Z,331.76
2022-08-25T02:06:06.412Z,331.76
2022-08-25T02:07:06.431Z,331.76
2022-08-25T02:08:06.573Z,331.76
2022-08-25T02:09:06.413Z,331.76
2022-08-25T02:10:06.408Z,331.76
2022-08-25T02:11:06.418Z,331.76
2022-08-25T02:12:06.421Z,331.76
2022-08-25T02:13:06.413Z,331.76
2022-08-25T02:14:06.432Z,331.76
2022-08-25T02:15:06.414Z,331.76
2022-08-25T02:16:06.417Z,331.76
2022-08-25T02:17:06.480Z,331.76
2022-08-25T02:18:06.574Z,331.76
2022-08-25T02:19:06.415Z,331.76
2022-08-25T02:20:06.417Z,331.76
2022-08-25T02:21:06.420Z,331.76
2022-08-25T02:22:06.415Z,331.76
2022-08-25T02:23:06.422Z,331.76
2022-08-25T02:24:06.425Z,331.76
2022-08-25T02:25:06.431Z,331.76
2022-08-25T02:26:06.418Z,331.76
2022-08-25T02:27:06.424Z,331.76
2022-08-25T02:28:06.534Z,331.76
2022-08-25T02:29:06.424Z,331.76
2022-08-25T02:30:06.422Z,331.76
2022-08-25T02:31:06.456Z,331.76
2022-08-25T02:32:06.420Z,331.76
2022-08-25T02:33:06.428Z,331.76
2022-08-25T02:34:06.429Z,331.76
2022-08-25T02:35:06.424Z,331.76
2022-08-25T02:36:06.433Z,331.76
2022-08-25T02:37:06.443Z,331.76
2022-08-25T02:38:06.539Z,331.76
2022-08-25T02:39:06.432Z,331.76
2022-08-25T02:40:06.499Z,331.76
2022-08-25T02:41:06.438Z,331.76
2022-08-25T02:42:06.438Z,331.76
2022-08-25T02:43:06.447Z,331.76
2022-08-25T02:44:06.448Z,331.76
2022-08-25T02:45:06.430Z,331.76
2022-08-25T02:46:06.491Z,331.76
2022-08-25T02:47:06.440Z,331.76
2022-08-25T02:48:06.639Z,331.76
2022-08-25T02:49:06.450Z,331.76
2022-08-25T02:50:06.448Z,331.76
2022-08-25T02:51:06.456Z,331.76
2022-08-25T02:52:06.451Z,331.76
2022-08-25T02:53:06.462Z,331.76
2022-08-25T02:54:06.447Z,331.76
2022-08-25T02:55:06.443Z,331.76
2022-08-25T02:56:06.454Z,331.76
2022-08-25T02:57:06.451Z,331.76
2022-08-25T02:58:06.627Z,331.76
2022-08-25T02:59:06.446Z,331.76
2022-08-25T03:00:06.454Z,331.76
2022-08-25T03:01:06.482Z,331.76
2022-08-25T03:02:06.458Z,331.76
2022-08-25T03:03:06.472Z,331.76
2022-08-25T03:04:06.457Z,331.76
2022-08-25T03:05:06.574Z,331.76
2022-08-25T03:06:06.454Z,331.76
2022-08-25T03:07:06.454Z,331.76
2022-08-25T03:08:06.648Z,331.76
2022-08-25T03:09:06.458Z,331.76
2022-08-25T03:10:06.459Z,331.76
2022-08-25T03:11:06.458Z,331.76
2022-08-25T03:12:06.457Z,331.76
2022-08-25T03:13:06.469Z,331.76
2022-08-25T03:14:06.463Z,331.76
2022-08-25T03:15:09.228Z,331.76
2022-08-25T03:16:10.810Z,331.76
2022-08-25T03:17:08.643Z,331.76
2022-08-25T03:18:06.580Z,331.76
2022-08-25T03:19:06.468Z,331.76
2022-08-25T03:20:06.467Z,331.76
2022-08-25T03:21:06.468Z,331.76
2022-08-25T03:22:06.472Z,331.76
2022-08-25T03:23:06.461Z,331.76
2022-08-25T03:24:06.469Z,331.76
2022-08-25T03:25:06.478Z,331.76
2022-08-25T03:26:06.478Z,331.76
2022-08-25T03:27:06.472Z,331.76
2022-08-25T03:28:06.673Z,331.76
2022-08-25T03:29:06.476Z,331.76
2022-08-25T03:30:06.480Z,331.76
2022-08-25T03:31:06.473Z,331.76
2022-08-25T03:32:06.493Z,331.76
2022-08-25T03:33:06.485Z,331.76
2022-08-25T03:34:06.475Z,331.76
2022-08-25T03:35:06.470Z,331.76
2022-08-25T03:36:06.477Z,331.76
2022-08-25T03:37:06.476Z,331.76
2022-08-25T03:38:06.590Z,331.76
2022-08-25T03:39:06.480Z,331.76
2022-08-25T03:40:06.514Z,331.76
2022-08-25T03:41:06.484Z,331.76
2022-08-25T03:42:06.482Z,331.76
2022-08-25T03:43:06.483Z,331.76
2022-08-25T03:44:06.481Z,331.76
2022-08-25T03:45:06.480Z,331.76
2022-08-25T03:46:06.549Z,331.76
2022-08-25T03:47:06.484Z,331.76
2022-08-25T03:48:06.555Z,331.76
2022-08-25T03:49:06.484Z,331.76
2022-08-25T03:50:06.478Z,331.76
2022-08-25T03:51:06.483Z,331.76
2022-08-25T03:52:06.488Z,331.76
2022-08-25T03:53:06.485Z,331.76
2022-08-25T03:54:06.494Z,331.76
2022-08-25T03:55:06.485Z,331.76
2022-08-25T03:56:06.494Z,331.76
2022-08-25T03:57:06.480Z,331.76
2022-08-25T03:58:06.576Z,331.76
2022-08-25T03:59:06.486Z,331.76
2022-08-25T04:00:06.486Z,331.76
2022-08-25T04:01:06.537Z,331.76
2022-08-25T04:02:06.576Z,331.76
2022-08-25T04:03:06.492Z,331.76
2022-08-25T04:04:06.494Z,331.76
2022-08-25T04:05:06.507Z,331.76
2022-08-25T04:06:06.487Z,331.76
2022-08-25T04:07:06.496Z,331.76
2022-08-25T04:08:06.621Z,331.76
2022-08-25T04:09:06.491Z,331.76
2022-08-25T04:10:06.491Z,331.76
2022-08-25T04:11:06.495Z,331.76
2022-08-25T04:12:06.502Z,331.76
2022-08-25T04:13:06.494Z,331.76
2022-08-25T04:14:06.501Z,331.76
2022-08-25T04:15:06.490Z,331.76
2022-08-25T04:16:06.543Z,331.76
2022-08-25T04:17:06.495Z,331.76
2022-08-25T04:18:06.682Z,331.76
2022-08-25T04:19:06.499Z,331.76
2022-08-25T04:20:06.498Z,331.76
2022-08-25T04:21:06.496Z,331.76
2022-08-25T04:22:06.494Z,331.76
2022-08-25T04:23:06.490Z,331.76
2022-08-25T04:24:06.497Z,331.76
2022-08-25T04:25:06.495Z,331.76
2022-08-25T04:26:06.494Z,331.76
2022-08-25T04:27:06.504Z,331.76
2022-08-25T04:28:06.671Z,331.76
2022-08-25T04:29:06.502Z,331.76
2022-08-25T04:30:06.498Z,331.76
2022-08-25T04:31:06.496Z,331.76
2022-08-25T04:32:06.534Z,331.76
2022-08-25T04:33:06.498Z,331.76
2022-08-25T04:34:10.183Z,331.76
2022-08-25T04:35:06.509Z,331.76
2022-08-25T04:36:10.123Z,331.76
2022-08-25T04:37:06.501Z,331.76
2022-08-25T04:38:06.593Z,331.76
2022-08-25T04:39:06.503Z,331.76
2022-08-25T04:40:06.586Z,331.76
2022-08-25T04:41:06.508Z,331.76
2022-08-25T04:42:06.501Z,331.76
2022-08-25T04:43:06.500Z,331.76
2022-08-25T04:44:06.500Z,331.76
2022-08-25T04:45:06.512Z,331.76
2022-08-25T04:46:06.572Z,331.76
2022-08-25T04:47:06.511Z,331.76
2022-08-25T04:48:06.675Z,331.76
2022-08-25T04:49:06.498Z,331.76
2022-08-25T04:50:06.506Z,331.76
2022-08-25T04:51:06.506Z,331.76
2022-08-25T04:52:07.643Z,331.76
2022-08-25T04:53:06.501Z,331.76
2022-08-25T04:54:06.496Z,331.76
2022-08-25T04:55:06.509Z,331.76
2022-08-25T04:56:06.517Z,331.76
2022-08-25T04:57:06.504Z,331.76
2022-08-25T04:58:06.631Z,331.76
2022-08-25T04:59:06.504Z,331.76
2022-08-25T05:00:06.499Z,331.76
2022-08-25T05:01:06.541Z,331.76
2022-08-25T05:02:06.497Z,331.76
2022-08-25T05:03:06.504Z,331.76
2022-08-25T05:04:06.557Z,331.76
2022-08-25T05:05:06.504Z,331.76
2022-08-25T05:06:06.513Z,331.76
2022-08-25T05:07:06.513Z,331.76
2022-08-25T05:08:06.655Z,331.76
2022-08-25T05:09:06.501Z,331.76
2022-08-25T05:10:06.509Z,331.76
2022-08-25T05:11:06.505Z,331.76
2022-08-25T05:12:06.506Z,331.76
2022-08-25T05:13:06.514Z,331.76
2022-08-25T05:14:06.502Z,331.76
2022-08-25T05:15:06.508Z,331.76
2022-08-25T05:16:06.564Z,331.76
2022-08-25T05:17:06.512Z,331.76
2022-08-25T05:18:06.609Z,331.76
2022-08-25T05:19:06.504Z,331.76
2022-08-25T05:20:06.526Z,331.76
2022-08-25T05:21:06.516Z,331.76
2022-08-25T05:22:06.509Z,331.76
2022-08-25T05:23:06.515Z,331.76
2022-08-25T05:24:06.503Z,331.76
2022-08-25T05:25:06.510Z,331.76
2022-08-25T05:26:06.526Z,331.76
2022-08-25T05:27:06.523Z,331.76
2022-08-25T05:28:06.678Z,331.76
2022-08-25T05:29:06.509Z,331.76
2022-08-25T05:30:06.519Z,331.76
2022-08-25T05:31:06.607Z,331.76
2022-08-25T05:32:06.549Z,331.76
2022-08-25T05:33:06.551Z,331.76
2022-08-25T05:34:06.514Z,331.76
2022-08-25T05:35:06.512Z,331.76
2022-08-25T05:36:06.514Z,331.76
2022-08-25T05:37:09.245Z,331.76
2022-08-25T05:38:06.623Z,331.76
2022-08-25T05:39:06.511Z,331.76
2022-08-25T05:40:06.578Z,331.76
2022-08-25T05:41:06.513Z,331.76
2022-08-25T05:42:06.521Z,331.76
2022-08-25T05:43:06.526Z,331.76
2022-08-25T05:44:06.518Z,331.76
2022-08-25T05:45:06.521Z,331.76
2022-08-25T05:46:06.604Z,331.76
2022-08-25T05:47:06.524Z,331.76
2022-08-25T05:48:06.648Z,331.76
2022-08-25T05:49:06.528Z,53.65
2022-08-25T05:50:06.523Z,53.65
2022-08-25T05:51:06.526Z,53.65
2022-08-25T05:52:06.531Z,53.65
2022-08-25T05:53:06.532Z,53.65
2022-08-25T05:54:06.541Z,53.65
2022-08-25T05:55:06.528Z,53.65
2022-08-25T05:56:06.524Z,53.65
2022-08-25T05:57:06.533Z,53.65
2022-08-25T05:58:06.671Z,53.65
2022-08-25T05:59:09.406Z,53.65
2022-08-25T06:00:06.525Z,53.65
2022-08-25T06:01:06.588Z,53.65
2022-08-25T06:02:06.526Z,53.65
2022-08-25T06:03:06.526Z,53.65
2022-08-25T06:04:06.600Z,53.65
2022-08-25T06:05:06.540Z,53.65
2022-08-25T06:06:06.526Z,53.65
2022-08-25T06:07:06.542Z,53.65
2022-08-25T06:08:06.615Z,53.65
2022-08-25T06:09:06.545Z,53.65
2022-08-25T06:10:06.539Z,53.65
2022-08-25T06:11:06.537Z,53.65
2022-08-25T06:12:06.540Z,53.65
2022-08-25T06:13:06.648Z,53.65
2022-08-25T06:14:06.543Z,53.65
2022-08-25T06:15:06.537Z,53.65
2022-08-25T06:16:06.594Z,53.65
2022-08-25T06:17:06.545Z,53.65
2022-08-25T06:18:06.692Z,53.65
2022-08-25T06:19:06.550Z,53.65
2022-08-25T06:20:06.547Z,53.65
2022-08-25T06:21:06.550Z,53.65
2022-08-25T06:22:06.551Z,53.65
2022-08-25T06:23:06.574Z,53.65
2022-08-25T06:24:06.553Z,53.65
2022-08-25T06:25:06.553Z,53.65
2022-08-25T06:26:06.548Z,53.65
2022-08-25T06:27:06.554Z,53.65
2022-08-25T06:28:06.643Z,53.65
2022-08-25T06:29:06.555Z,53.65
2022-08-25T06:30:07.763Z,53.65
2022-08-25T06:31:06.632Z,53.65
2022-08-25T06:32:06.552Z,53.65
2022-08-25T06:33:06.549Z,53.65
2022-08-25T06:34:06.580Z,53.65
2022-08-25T06:35:06.562Z,53.65
2022-08-25T06:36:06.570Z,53.65
2022-08-25T06:37:06.556Z,53.65
2022-08-25T06:38:06.709Z,53.65
2022-08-25T06:39:06.555Z,53.65
2022-08-25T06:40:06.594Z,53.65
2022-08-25T06:41:06.566Z,53.65
2022-08-25T06:42:06.559Z,53.65
2022-08-25T06:43:06.561Z,53.65
2022-08-25T06:44:06.564Z,53.65
2022-08-25T06:45:06.567Z,53.65
2022-08-25T06:46:06.568Z,53.65
2022-08-25T06:47:06.621Z,53.65
2022-08-25T06:48:06.654Z,53.65
2022-08-25T06:49:06.565Z,53.65
2022-08-25T06:50:06.559Z,53.65
2022-08-25T06:51:06.570Z,53.65
2022-08-25T06:52:06.566Z,53.65
2022-08-25T06:53:06.570Z,53.65
2022-08-25T06:54:06.577Z,53.65
2022-08-25T06:55:06.571Z,53.65
2022-08-25T06:56:06.858Z,53.65
2022-08-25T06:57:06.575Z,53.65
2022-08-25T06:58:06.643Z,53.65
2022-08-25T06:59:06.590Z,53.65
2022-08-25T07:00:06.576Z,53.65
2022-08-25T07:01:06.660Z,53.65
2022-08-25T07:02:06.639Z,53.65
2022-08-25T07:03:07.055Z,53.65
2022-08-25T07:04:10.218Z,53.65
2022-08-25T07:05:08.200Z,192
2022-08-25T07:06:06.578Z,182.12
2022-08-25T07:07:06.576Z,182.12
2022-08-25T07:08:06.683Z,183.53
2022-08-25T07:09:06.581Z,183.53
2022-08-25T07:10:06.593Z,166.59
2022-08-25T07:11:06.585Z,168
2022-08-25T07:12:06.578Z,149.65
2022-08-25T07:13:06.580Z,186.35
2022-08-25T07:14:06.584Z,186.35
2022-08-25T07:15:21.278Z,186.35
2022-08-25T07:16:06.596Z,186.35
2022-08-25T07:17:10.571Z,186.35
2022-08-25T07:18:06.800Z,186.35
2022-08-25T07:19:06.586Z,186.35
2022-08-25T07:20:06.611Z,186.35
2022-08-25T07:21:09.036Z,186.35
2022-08-25T07:22:06.586Z,186.35
2022-08-25T07:23:06.695Z,127.06
2022-08-25T07:24:06.583Z,96
2022-08-25T07:25:06.591Z,96
2022-08-25T07:26:15.664Z,96
2022-08-25T07:27:06.591Z,96
2022-08-25T07:28:06.592Z,96
2022-08-25T07:29:06.587Z,96
2022-08-25T07:30:06.593Z,96
2022-08-25T07:31:06.622Z,96
2022-08-25T07:32:06.595Z,96
2022-08-25T07:33:06.846Z,96
2022-08-25T07:34:06.584Z,201.88
2022-08-25T07:35:06.588Z,145.41
2022-08-25T07:36:06.592Z,145.41
2022-08-25T07:37:06.588Z,145.41
2022-08-25T07:38:06.589Z,200.47
2022-08-25T07:39:06.585Z,197.65
2022-08-25T07:40:06.641Z,180.71
2022-08-25T07:41:06.598Z,186.35
2022-08-25T07:42:11.819Z,186.35
2022-08-25T07:43:06.729Z,227.29
2022-08-25T07:44:06.600Z,271.06
2022-08-25T07:45:07.197Z,204.71
2022-08-25T07:46:06.635Z,204.71
2022-08-25T07:47:06.587Z,242.82
2022-08-25T07:48:06.600Z,231.53
2022-08-25T07:49:12.626Z,221.65
2022-08-25T07:50:06.590Z,232.94
2022-08-25T07:51:07.499Z,186.35
2022-08-25T07:52:06.958Z,189.18
2022-08-25T07:53:06.887Z,156.71
2022-08-25T07:54:06.595Z,156.71
2022-08-25T07:55:06.602Z,227.29
2022-08-25T07:56:06.632Z,148.24
2022-08-25T07:57:06.602Z,148.24
2022-08-25T07:58:06.746Z,184.94
2022-08-25T07:59:06.609Z,127.06
2022-08-25T08:00:06.600Z,146.82
2022-08-25T08:01:06.602Z,186.35
2022-08-25T08:02:06.633Z,186.35
2022-08-25T08:03:06.975Z,186.35
2022-08-25T08:04:06.650Z,186.35
2022-08-25T08:05:08.426Z,186.35
2022-08-25T08:06:06.612Z,218.82
2022-08-25T08:07:06.616Z,115.76
2022-08-25T08:08:06.756Z,111.53
2022-08-25T08:09:06.617Z,111.53
2022-08-25T08:10:33.097Z,111.53
2022-08-25T08:11:06.614Z,111.53
2022-08-25T08:12:06.606Z,182.12
2022-08-25T08:13:07.631Z,153.88
2022-08-25T08:14:06.629Z,139.76
2022-08-25T08:15:10.223Z,139.76
2022-08-25T08:16:06.650Z,139.76
2022-08-25T08:17:06.612Z,139.76
2022-08-25T08:18:07.105Z,139.76
2022-08-25T08:19:06.614Z,139.76
2022-08-25T08:20:06.620Z,139.76
2022-08-25T08:21:06.620Z,139.76
2022-08-25T08:22:06.614Z,170.82
2022-08-25T08:23:06.786Z,66.35
2022-08-25T08:24:11.092Z,32.47
2022-08-25T08:25:06.621Z,152.47
2022-08-25T08:26:06.617Z,180.71
2022-08-25T08:27:06.618Z,142.59
2022-08-25T08:28:07.106Z,76.24
2022-08-25T08:29:06.617Z,139.76
2022-08-25T08:30:06.619Z,131.29
2022-08-25T08:31:06.687Z,128.47
2022-08-25T08:32:06.619Z,261.18
2022-08-25T08:33:09.971Z,314.82
2022-08-25T08:34:06.616Z,272.47
2022-08-25T08:35:06.614Z,272.47
2022-08-25T08:36:06.619Z,304.94
2022-08-25T08:37:06.619Z,295.06
2022-08-25T08:38:12.601Z,302.12
2022-08-25T08:39:06.624Z,304.94
2022-08-25T08:40:06.696Z,283.76
2022-08-25T08:41:06.619Z,316.24
2022-08-25T08:42:11.779Z,204.71
2022-08-25T08:43:06.750Z,204.71
2022-08-25T08:44:06.656Z,176.47
2022-08-25T08:45:09.459Z,169.41
2022-08-25T08:46:06.719Z,96
2022-08-25T08:47:07.143Z,148.24
2022-08-25T08:48:06.835Z,148.24
2022-08-25T08:49:06.629Z,275.29
2022-08-25T08:50:06.626Z,254.12
2022-08-25T08:51:06.711Z,254.12
2022-08-25T08:52:06.628Z,254.12
2022-08-25T08:53:06.662Z,254.12
2022-08-25T08:54:06.625Z,254.12
2022-08-25T08:55:06.643Z,254.12
2022-08-25T08:56:06.629Z,254.12
2022-08-25T08:57:06.624Z,254.12
2022-08-25T08:58:06.814Z,254.12
2022-08-25T08:59:06.703Z,254.12
2022-08-25T09:00:06.625Z,254.12
2022-08-25T09:01:06.627Z,254.12
2022-08-25T09:02:06.703Z,254.12
2022-08-25T09:03:06.838Z,254.12
2022-08-25T09:04:06.631Z,254.12
2022-08-25T09:05:06.629Z,254.12
2022-08-25T09:06:06.767Z,254.12
2022-08-25T09:07:06.627Z,254.12
2022-08-25T09:08:06.779Z,254.12
2022-08-25T09:09:06.785Z,254.12
2022-08-25T09:10:06.631Z,254.12
2022-08-25T09:11:06.627Z,254.12
2022-08-25T09:12:06.631Z,254.12
2022-08-25T09:13:11.478Z,254.12
2022-08-25T09:14:06.632Z,203.29
2022-08-25T09:15:12.198Z,187.76
2022-08-25T09:16:06.700Z,172.24
2022-08-25T09:17:06.634Z,179.29
2022-08-25T09:18:06.643Z,176.47
2022-08-25T09:19:06.629Z,197.65
2022-08-25T09:20:18.127Z,199.06
2022-08-25T09:21:07.151Z,199.06
2022-08-25T09:22:34.148Z,199.06
2022-08-25T09:23:06.636Z,228.71
2022-08-25T09:24:06.640Z,208.94
2022-08-25T09:25:08.617Z,217.41
2022-08-25T09:26:06.634Z,217.41
2022-08-25T09:27:06.632Z,350.12
2022-08-25T09:28:06.916Z,350.12
2022-08-25T09:29:06.639Z,354.35
2022-08-25T09:30:06.644Z,354.35
2022-08-25T09:31:06.664Z,354.35
2022-08-25T09:32:06.642Z,354.35
2022-08-25T09:33:06.643Z,300.71
2022-08-25T09:34:06.639Z,296.47
2022-08-25T09:35:06.654Z,341.65
2022-08-25T09:36:08.922Z,316.24
2022-08-25T09:37:06.644Z,297.88
2022-08-25T09:38:06.790Z,299.29
2022-08-25T09:39:06.705Z,289.41
2022-08-25T09:40:06.706Z,290.82
2022-08-25T09:41:06.641Z,220.24
2022-08-25T09:42:06.652Z,146.82
2022-08-25T09:43:06.645Z,295.06
2022-08-25T09:44:06.647Z,289.41
2022-08-25T09:45:06.655Z,290.82
2022-08-25T09:46:06.677Z,303.53
2022-08-25T09:47:07.123Z,351.53
2022-08-25T09:48:06.886Z,235.76
2022-08-25T09:49:06.668Z,235.76
2022-08-25T09:50:06.660Z,235.76
2022-08-25T09:51:06.659Z,252.71
2022-08-25T09:52:06.654Z,224.47
2022-08-25T09:53:15.205Z,320.47
2022-08-25T09:54:10.638Z,38.12
2022-08-25T09:55:06.648Z,306.35
2022-08-25T09:56:06.651Z,297.88
2022-08-25T09:57:08.646Z,302.12
2022-08-25T09:58:06.931Z,296.47
2022-08-25T09:59:06.658Z,279.53
2022-08-25T10:00:06.655Z,228.71
2022-08-25T10:01:06.699Z,200.47
2022-08-25T10:02:06.655Z,186.35
2022-08-25T10:03:06.923Z,186.35
2022-08-25T10:04:06.772Z,186.35
2022-08-25T10:05:06.775Z,186.35
2022-08-25T10:06:06.660Z,186.35
2022-08-25T10:07:06.664Z,186.35
2022-08-25T10:08:06.658Z,186.35
2022-08-25T10:09:06.775Z,258.35
2022-08-25T10:10:06.672Z,271.06
2022-08-25T10:11:06.659Z,271.06
2022-08-25T10:12:06.662Z,271.06
2022-08-25T10:13:06.881Z,271.06
2022-08-25T10:14:06.655Z,271.06
2022-08-25T10:15:06.657Z,271.06
2022-08-25T10:16:13.782Z,271.06
2022-08-25T10:17:06.667Z,271.06
2022-08-25T10:18:06.662Z,271.06
2022-08-25T10:19:06.666Z,273.88
2022-08-25T10:20:06.664Z,289.41
2022-08-25T10:21:07.724Z,280.94
2022-08-25T10:22:06.662Z,251.29
2022-08-25T10:23:06.902Z,261.18
2022-08-25T10:24:06.664Z,232.94
2022-08-25T10:25:06.661Z,259.76
2022-08-25T10:26:06.663Z,152.47
2022-08-25T10:27:06.669Z,152.47
2022-08-25T10:28:06.819Z,152.47
2022-08-25T10:29:06.661Z,152.47
2022-08-25T10:30:06.663Z,152.47
2022-08-25T10:31:06.699Z,152.47
2022-08-25T10:32:11.570Z,152.47
2022-08-25T10:33:06.804Z,152.47
2022-08-25T10:34:06.663Z,152.47
2022-08-25T10:35:06.666Z,152.47
2022-08-25T10:36:06.662Z,152.47
2022-08-25T10:37:06.659Z,152.47
2022-08-25T10:38:06.667Z,310.59
2022-08-25T10:39:06.672Z,328.94
2022-08-25T10:40:06.693Z,312
2022-08-25T10:41:06.669Z,296.47
2022-08-25T10:42:06.666Z,306.35
2022-08-25T10:43:06.768Z,302.12
2022-08-25T10:44:06.669Z,309.18
2022-08-25T10:45:06.665Z,309.18
2022-08-25T10:46:06.724Z,309.18
2022-08-25T10:47:06.672Z,283.76
2022-08-25T10:48:06.674Z,293.65
2022-08-25T10:49:06.671Z,293.65
2022-08-25T10:50:06.668Z,293.65
2022-08-25T10:51:06.677Z,341.65
2022-08-25T10:52:06.673Z,341.65
2022-08-25T10:53:06.853Z,336
2022-08-25T10:54:06.672Z,336
2022-08-25T10:55:06.667Z,337.41
2022-08-25T10:56:07.226Z,338.82
2022-08-25T10:57:07.140Z,337.41
2022-08-25T10:58:06.677Z,334.59
2022-08-25T10:59:06.670Z,334.59
2022-08-25T11:00:06.678Z,330.35
2022-08-25T11:01:06.710Z,336
2022-08-25T11:02:06.715Z,271.06
2022-08-25T11:03:06.876Z,289.41
2022-08-25T11:04:06.702Z,302.12
2022-08-25T11:05:06.870Z,286.59
2022-08-25T11:06:06.673Z,286.59
2022-08-25T11:07:06.675Z,286.59
2022-08-25T11:08:06.685Z,70.59
2022-08-25T11:09:06.670Z,228.71
2022-08-25T11:10:06.673Z,290.82
2022-08-25T11:11:06.680Z,290.82
2022-08-25T11:12:06.681Z,289.41
2022-08-25T11:13:06.900Z,264
2022-08-25T11:14:09.438Z,309.18
2022-08-25T11:15:06.680Z,276.71
2022-08-25T11:16:16.946Z,295.06
2022-08-25T11:17:06.775Z,285.18
2022-08-25T11:18:10.280Z,269.65
2022-08-25T11:19:06.674Z,258.35
2022-08-25T11:20:06.676Z,259.76
2022-08-25T11:21:06.688Z,235.76
2022-08-25T11:22:06.682Z,283.76
2022-08-25T11:23:06.931Z,266.82
2022-08-25T11:24:06.688Z,261.18
2022-08-25T11:25:06.684Z,280.94
2022-08-25T11:26:06.679Z,280.94
2022-08-25T11:27:06.672Z,220.24
2022-08-25T11:28:06.918Z,220.24
2022-08-25T11:29:07.753Z,220.24
2022-08-25T11:30:07.053Z,220.24
2022-08-25T11:31:06.789Z,269.65
2022-08-25T11:32:06.682Z,259.76
2022-08-25T11:33:06.699Z,256.94
2022-08-25T11:34:06.679Z,283.76
2022-08-25T11:35:06.692Z,248.47
2022-08-25T11:36:06.919Z,262.59
2022-08-25T11:37:06.694Z,283.76
2022-08-25T11:38:06.944Z,286.59
2022-08-25T11:39:06.699Z,279.53
2022-08-25T11:40:06.751Z,309.18
2022-08-25T11:41:10.934Z,309.18
2022-08-25T11:42:06.681Z,283.76
2022-08-25T11:43:08.059Z,304.94
2022-08-25T11:44:06.681Z,321.88
2022-08-25T11:45:06.694Z,330.35
2022-08-25T11:46:06.736Z,330.35
2022-08-25T11:47:06.682Z,232.94
2022-08-25T11:48:06.930Z,273.88
2022-08-25T11:49:06.702Z,265.41
2022-08-25T11:50:06.684Z,275.29
2022-08-25T11:51:06.698Z,255.53
2022-08-25T11:52:06.689Z,285.18
2022-08-25T11:53:06.687Z,290.82
2022-08-25T11:54:06.681Z,289.41
2022-08-25T11:55:06.689Z,278.12
2022-08-25T11:56:06.688Z,268.24
2022-08-25T11:57:06.693Z,288
2022-08-25T11:58:06.928Z,235.76
2022-08-25T11:59:06.698Z,234.35
2022-08-25T12:00:06.682Z,255.53
2022-08-25T12:01:06.692Z,231.53
2022-08-25T12:02:06.695Z,232.94
2022-08-25T12:03:06.690Z,228.71
2022-08-25T12:04:06.738Z,225.88
2022-08-25T12:05:06.806Z,221.65
2022-08-25T12:06:06.687Z,268.24
2022-08-25T12:07:06.855Z,248.47
2022-08-25T12:08:06.930Z,248.47
2022-08-25T12:09:06.695Z,248.47
2022-08-25T12:10:06.682Z,285.18
2022-08-25T12:11:10.817Z,264
2022-08-25T12:12:06.686Z,293.65
2022-08-25T12:13:08.072Z,312
2022-08-25T12:14:06.691Z,295.06
2022-08-25T12:15:06.679Z,199.06
2022-08-25T12:16:06.691Z,303.53
2022-08-25T12:17:06.688Z,297.88
2022-08-25T12:18:07.457Z,314.82
2022-08-25T12:19:06.695Z,300.71
2022-08-25T12:20:06.767Z,289.41
2022-08-25T12:21:06.687Z,303.53
2022-08-25T12:22:06.691Z,310.59
2022-08-25T12:23:06.688Z,324.71
2022-08-25T12:24:06.690Z,313.41
2022-08-25T12:25:06.700Z,297.88
2022-08-25T12:26:06.699Z,282.35
2022-08-25T12:27:06.754Z,292.24
2022-08-25T12:28:09.127Z,297.88
2022-08-25T12:29:07.417Z,302.12
2022-08-25T12:30:06.706Z,247.06
2022-08-25T12:31:06.771Z,276.71
2022-08-25T12:32:06.710Z,254.12
2022-08-25T12:33:06.700Z,271.06